Time;durP1;ratioP1;P1;durP2;ratioP2;P2;SDS_P1;SDS_P2;PMS_P1;PMS_P2;Temp;Humidity;BMP_temperature;BMP_pressure;BME280_temperature;BME280_humidity;BME280_pressure;Samples;Min_cycle;Max_cycle;Signal;HPM_P1;HPM_P2
2022/01/17 04:59:03;;;;;;;14.15;9.23;;;;;;;6.34;57.40;101083.91;5604978;31;78551;-58
2022/01/17 05:02:06;;;;;;;15.93;9.27;;;;;;;6.34;57.40;101083.91;5583210;31;34138;-58
2022/01/17 05:05:10;;;;;;;14.40;9.05;;;;;;;5.83;57.48;101100.59;5583624;31;34227;-59
2022/01/17 05:08:14;;;;;;;14.38;8.98;;;;;;;5.96;57.27;101078.28;5583358;31;33137;-58
2022/01/17 05:11:17;;;;;;;14.43;9.32;;;;;;;6.11;56.95;101065.31;5582865;31;33819;-58
2022/01/17 05:14:19;;;;;;;14.80;9.50;;;;;;;6.24;56.80;101049.09;5593012;31;33536;-58
2022/01/17 05:20:29;;;;;;;14.25;9.48;;;;;;;6.24;56.18;101053.59;5592575;31;34365;-59
2022/01/17 05:23:32;;;;;;;16.12;9.68;;;;;;;6.35;56.17;101039.44;5603153;31;34293;-58
2022/01/17 05:26:34;;;;;;;13.75;9.70;;;;;;;6.38;56.98;101046.97;5589224;31;33555;-58
2022/01/17 05:29:36;;;;;;;17.80;10.68;;;;;;;6.44;56.23;101039.91;5583749;31;33597;-59
2022/01/17 05:32:39;;;;;;;14.75;9.43;;;;;;;6.34;56.40;101035.97;5602809;31;33245;-59
2022/01/17 05:35:41;;;;;;;14.93;9.80;;;;;;;6.40;56.29;101050.22;5601478;31;33165;-58
2022/01/17 05:38:46;;;;;;;16.12;9.80;;;;;;;6.35;56.31;101039.44;5602464;31;33555;-59
2022/01/17 05:41:48;;;;;;;15.73;9.75;;;;;;;6.34;56.46;101043.97;5602464;31;33582;-59
2022/01/17 05:44:51;;;;;;;13.62;9.07;;;;;;;6.35;56.27;101042.09;5602733;31;33683;-59
2022/01/17 05:47:53;;;;;;;13.25;8.60;;;;;;;6.55;56.80;101041.69;5602941;31;33721;-59
2022/01/17 05:50:56;;;;;;;13.20;8.80;;;;;;;6.58;64.19;101041.22;5602858;31;33671;-59
2022/01/17 05:53:58;;;;;;;16.37;10.10;;;;;;;6.53;56.37;101041.94;5601734;31;34304;-59
2022/01/17 05:57:01;;;;;;;12.25;9.23;;;;;;;6.65;57.20;101049.09;5580915;31;34398;-59
2022/01/17 06:00:05;;;;;;;12.73;8.55;;;;;;;6.66;55.94;101045.41;5586330;31;33870;-58
2022/01/17 06:03:08;;;;;;;13.38;9.23;;;;;;;6.69;55.28;101045.72;5573266;32;33870;-58
2022/01/17 06:06:10;;;;;;;13.85;9.32;;;;;;;6.88;55.00;101051.66;5563941;32;33564;-59
2022/01/17 06:09:13;;;;;;;16.12;9.55;;;;;;;6.88;55.38;101040.19;5555539;32;34258;-58
2022/01/17 06:12:15;;;;;;;12.75;9.05;;;;;;;6.89;53.94;101044.47;5549827;32;33582;-58
2022/01/17 06:15:18;;;;;;;13.55;8.98;;;;;;;6.93;63.85;101048.28;5554809;32;33704;-59
2022/01/17 06:18:20;;;;;;;13.18;9.00;;;;;;;6.94;56.03;101047.22;5569641;32;34312;-59
2022/01/17 06:21:22;;;;;;;14.25;9.77;;;;;;;6.91;57.07;101045.84;5569502;32;33571;-58
2022/01/17 06:24:25;;;;;;;14.57;10.20;;;;;;;6.83;54.71;101036.38;5569230;32;33922;-58
2022/01/17 06:27:27;;;;;;;11.77;8.23;;;;;;;6.92;54.55;101043.97;5568832;32;33164;-58
2022/01/17 06:30:29;;;;;;;12.15;8.52;;;;;;;6.93;53.94;101041.09;5567858;32;34323;-59
2022/01/17 06:33:32;;;;;;;12.90;8.85;;;;;;;6.76;54.62;101030.41;5559849;32;34372;-58
2022/01/17 06:36:35;;;;;;;12.13;8.00;;;;;;;6.73;55.27;101043.41;5560760;32;33966;-59
2022/01/17 06:39:44;;;;;;;12.13;8.50;;;;;;;6.73;54.09;101027.41;5558309;31;33841;-58
2022/01/17 06:42:50;;;;;;;12.98;8.15;;;;;;;6.92;54.64;101025.31;5550056;32;33694;-59
2022/01/17 06:45:54;;;;;;;12.37;8.05;;;;;;;6.85;54.17;101022.00;5568604;32;34247;-58
2022/01/17 06:49:00;;;;;;;12.70;8.15;;;;;;;7.15;53.57;101022.56;5555597;32;33650;-58
2022/01/17 06:52:03;;;;;;;14.52;8.60;;;;;;;7.04;53.79;101023.41;5563670;32;34546;-59
2022/01/17 06:55:07;;;;;;;14.23;8.45;;;;;;;7.04;53.78;101032.22;5554469;32;34393;-59
2022/01/17 06:58:10;;;;;;;14.38;8.18;;;;;;;7.06;56.14;101037.31;5568621;32;34259;-58
2022/01/17 07:01:14;;;;;;;12.43;8.45;;;;;;;7.12;60.31;101036.38;5565056;32;33084;-59
2022/01/17 07:04:17;;;;;;;11.90;7.72;;;;;;;7.30;57.77;101019.31;5562242;32;34403;-58
2022/01/17 07:07:20;;;;;;;11.30;7.97;;;;;;;7.49;65.23;100986.00;5554934;31;33632;-58
2022/01/17 07:10:28;;;;;;;12.55;8.77;;;;;;;7.36;55.22;100988.22;5561787;32;33815;-59
2022/01/17 07:13:32;;;;;;;13.88;7.62;;;;;;;7.14;53.19;100983.59;5549940;32;33713;-58
2022/01/17 07:16:37;;;;;;;9.70;6.75;;;;;;;7.10;53.26;100969.13;5554803;31;34364;-59
2022/01/17 07:19:40;;;;;;;11.65;8.00;;;;;;;7.04;53.29;100972.75;5547424;32;33584;-57
2022/01/17 07:22:42;;;;;;;11.80;8.10;;;;;;;7.14;53.59;100975.59;5555218;31;33612;-58
2022/01/17 07:25:44;;;;;;;10.93;7.12;;;;;;;7.24;54.45;100983.75;5556837;32;34397;-58
2022/01/17 07:28:47;;;;;;;11.25;7.90;;;;;;;7.15;53.21;100984.38;5551541;32;34289;-58
2022/01/17 07:31:49;;;;;;;10.55;7.35;;;;;;;7.05;53.71;101009.84;5559282;32;34271;-58
2022/01/17 07:34:52;;;;;;;10.18;6.93;;;;;;;6.78;54.43;101033.63;5566309;32;34278;-58
2022/01/17 07:37:55;;;;;;;8.90;6.30;;;;;;;7.10;55.31;101041.13;5568359;32;33744;-58
2022/01/17 07:40:57;;;;;;;10.82;6.93;;;;;;;7.06;53.95;101063.97;5548092;32;33596;-58
2022/01/17 07:44:18;;;;;;;11.70;7.37;;;;;;;6.88;54.45;101091.63;5557871;32;33256;-58
2022/01/17 07:47:38;;;;;;;10.38;6.47;;;;;;;6.73;54.82;101121.47;5568709;31;34351;-58
2022/01/17 07:50:43;;;;;;;11.43;7.28;;;;;;;6.69;55.43;101122.16;5568026;32;33705;-58
2022/01/17 07:53:45;;;;;;;9.15;6.28;;;;;;;6.87;54.86;101099.88;5566647;32;33521;-58
2022/01/17 07:56:47;;;;;;;11.52;6.20;;;;;;;6.92;55.56;101065.31;5567526;32;33663;-58
2022/01/17 07:59:50;;;;;;;9.27;6.40;;;;;;;6.90;54.68;101046.91;5568109;32;33709;-58
2022/01/17 08:02:55;;;;;;;9.63;6.12;;;;;;;6.94;54.84;101021.38;5558260;32;33645;-59
2022/01/17 08:06:00;;;;;;;15.68;6.53;;;;;;;7.05;54.89;101031.19;5549820;32;34323;-58
2022/01/17 08:09:25;;;;;;;9.77;6.50;;;;;;;7.10;55.99;101027.78;5549006;32;33654;-58
2022/01/17 08:12:37;;;;;;;27.08;8.05;;;;;;;7.09;54.85;101009.38;5566081;31;33234;-58
2022/01/17 08:15:39;;;;;;;9.68;7.00;;;;;;;6.96;54.82;100995.31;5561978;32;33718;-58
2022/01/17 08:18:42;;;;;;;11.70;7.00;;;;;;;7.08;54.77;100981.88;5548862;32;33517;-58
2022/01/17 08:21:47;;;;;;;9.13;6.47;;;;;;;7.07;56.40;100961.63;5561176;31;34267;-58
2022/01/17 08:24:49;;;;;;;10.88;6.47;;;;;;;7.16;55.27;100948.69;5561334;31;33609;-59
2022/01/17 08:27:51;;;;;;;9.98;6.45;;;;;;;7.13;54.46;100941.19;5561624;31;33574;-59
2022/01/17 08:30:54;;;;;;;10.90;6.65;;;;;;;7.10;54.67;100939.81;5562862;31;34825;-58
2022/01/17 08:34:17;;;;;;;10.43;6.93;;;;;;;7.17;54.59;100959.09;5555390;31;34335;-58
2022/01/17 08:37:20;;;;;;;9.27;6.30;;;;;;;7.01;55.89;100962.56;5565396;32;33837;-59
2022/01/17 08:40:24;;;;;;;11.15;6.00;;;;;;;7.05;54.75;100971.69;5558884;32;34250;-58
2022/01/17 08:43:27;;;;;;;12.57;6.68;;;;;;;7.07;58.12;100967.75;5553932;32;34237;-59
2022/01/17 08:46:34;;;;;;;10.18;6.72;;;;;;;7.02;55.06;101010.34;5548519;32;34466;-58
2022/01/17 08:49:37;;;;;;;10.40;6.40;;;;;;;7.00;54.93;101035.62;5561607;31;33668;-58
2022/01/17 08:52:39;;;;;;;10.80;6.90;;;;;;;7.02;55.58;101042.31;5561158;32;34275;-57
2022/01/17 08:55:44;;;;;;;9.20;5.60;;;;;;;7.11;55.08;101056.06;5565730;32;34260;-58
2022/01/17 08:58:46;;;;;;;10.73;6.28;;;;;;;7.04;55.20;101034.88;5558748;31;34557;-58
2022/01/17 09:01:48;;;;;;;9.90;6.12;;;;;;;7.17;55.30;101035.62;5555320;32;32485;-59
2022/01/17 09:04:51;;;;;;;9.55;6.28;;;;;;;7.28;55.05;100989.41;5564737;31;33783;-58
2022/01/17 09:07:53;;;;;;;8.70;5.87;;;;;;;7.49;57.38;100991.34;5561689;31;33578;-58
2022/01/17 09:10:57;;;;;;;9.75;6.60;;;;;;;7.51;56.42;100975.87;5561468;32;33607;-59
2022/01/17 09:13:59;;;;;;;8.82;6.15;;;;;;;7.58;58.17;100950.88;5551472;31;33651;-59
2022/01/17 09:17:06;;;;;;;11.77;6.12;;;;;;;7.89;59.29;100952.91;5565554;32;33700;-59
2022/01/17 09:20:09;;;;;;;10.63;6.37;;;;;;;7.60;55.96;100922.91;5558396;32;33811;-58
2022/01/17 09:23:13;;;;;;;10.98;6.50;;;;;;;7.53;56.19;100936.44;5558758;32;33577;-58
2022/01/17 09:26:15;;;;;;;12.85;6.80;;;;;;;7.48;55.60;100924.87;5563820;32;33574;-58
2022/01/17 09:29:17;;;;;;;11.50;6.93;;;;;;;7.45;55.58;100918.19;5561644;31;34494;-59
2022/01/17 09:32:20;;;;;;;17.58;7.93;;;;;;;7.34;56.74;100886.28;5550268;32;33719;-58
2022/01/17 09:35:24;;;;;;;9.45;6.80;;;;;;;7.20;55.70;100889.28;5562633;31;33699;-58
2022/01/17 09:38:27;;;;;;;9.50;6.57;;;;;;;7.06;56.23;100896.03;5555947;31;33669;-58
2022/01/17 09:41:29;;;;;;;10.13;6.62;;;;;;;7.05;56.07;100883.72;5556634;31;34902;-58
2022/01/17 09:44:36;;;;;;;10.18;6.60;;;;;;;7.21;57.85;100882.09;5551084;32;33991;-58
2022/01/17 09:47:39;;;;;;;;;;;;;;;7.19;57.11;100873.56;5551217;32;33654;-58
2022/01/17 09:50:57;;;;;;;13.77;6.82;;;;;;;7.19;56.79;100855.69;5561578;32;33410;-58
2022/01/17 09:54:00;;;;;;;11.95;7.15;;;;;;;7.25;58.10;100824.53;5566766;31;34280;-58
2022/01/17 09:57:08;;;;;;;11.32;6.65;;;;;;;7.19;56.51;100820.22;5555523;31;33508;-58
2022/01/17 10:00:13;;;;;;;13.23;7.37;;;;;;;7.17;56.50;100827.66;5567906;32;33677;-58
2022/01/17 10:03:18;;;;;;;9.88;6.85;;;;;;;7.11;56.07;100828.62;5569567;32;34327;-58
2022/01/17 10:06:21;;;;;;;10.63;7.22;;;;;;;7.13;56.37;100832.66;5570291;31;33589;-58
2022/01/17 10:09:25;;;;;;;12.40;7.10;;;;;;;7.07;56.30;100828.31;5574445;31;33626;-58
2022/01/17 10:12:28;;;;;;;13.93;7.53;;;;;;;7.13;58.61;100831.88;5575412;31;33700;-59
2022/01/17 10:15:43;;;;;;;11.75;7.95;;;;;;;7.05;56.46;100833.91;5569746;31;34559;-58
2022/01/17 10:18:53;;;;;;;13.95;7.62;;;;;;;7.13;56.33;100846.00;5569097;32;33995;-58
2022/01/17 10:21:58;;;;;;;13.43;7.55;;;;;;;7.23;57.23;100838.13;5570227;31;34406;-58
2022/01/17 10:26:01;;;;;;;11.82;8.43;;;;;;;7.20;56.21;100817.28;5568432;32;32439;-58
2022/01/17 10:35:33;;;;;;;13.13;8.70;;;;;;;7.22;56.36;100790.41;5552954;31;31872;-57
2022/01/17 10:38:35;;;;;;;17.30;8.35;;;;;;;7.36;55.41;100785.50;5563957;31;34367;-58
2022/01/17 10:41:38;;;;;;;11.57;8.50;;;;;;;7.32;56.51;100777.19;5569187;32;33792;-58
2022/01/17 10:44:41;;;;;;;12.75;7.97;;;;;;;7.31;56.71;100778.22;5565222;32;34587;-58
2022/01/17 10:47:45;;;;;;;12.37;7.85;;;;;;;7.35;56.33;100766.03;5568816;32;34250;-58
2022/01/17 10:50:50;;;;;;;11.43;8.00;;;;;;;7.28;55.72;100789.37;5569572;31;34087;-58
2022/01/17 10:53:52;;;;;;;12.80;8.70;;;;;;;7.47;56.89;100779.22;5588680;31;33684;-58
2022/01/17 10:56:57;;;;;;;12.57;8.10;;;;;;;7.42;55.73;100781.84;5551100;31;33657;-59
2022/01/17 10:59:59;;;;;;;11.75;8.43;;;;;;;7.49;56.16;100769.13;5549394;32;34378;-59
2022/01/17 11:03:06;;;;;;;11.93;7.87;;;;;;;7.40;55.62;100751.94;5557261;32;33773;-58
2022/01/17 11:06:19;;;;;;;11.65;8.48;;;;;;;7.31;58.69;100732.88;5567672;31;33764;-58
2022/01/17 11:09:23;;;;;;;13.07;8.13;;;;;;;7.34;57.38;100713.72;5568184;32;33671;-58
2022/01/17 11:12:28;;;;;;;12.15;7.62;;;;;;;7.48;56.80;100724.81;5568297;31;33639;-58
2022/01/17 11:15:33;;;;;;;13.43;8.23;;;;;;;7.41;57.70;100719.66;5567079;32;34478;-58
2022/01/17 11:18:36;;;;;;;13.57;8.02;;;;;;;7.42;56.16;100725.84;5562497;31;33669;-58
2022/01/17 11:21:39;;;;;;;12.32;7.22;;;;;;;7.44;56.09;100715.69;5579785;31;33728;-58
2022/01/17 11:24:42;;;;;;;9.82;6.50;;;;;;;7.54;56.02;100694.47;5575516;31;34348;-58
2022/01/17 11:27:45;;;;;;;11.73;6.50;;;;;;;7.57;56.29;100674.47;5568203;32;33601;-58
2022/01/17 11:30:50;;;;;;;8.88;5.43;;;;;;;7.65;56.54;100690.84;5551015;32;34409;-58
2022/01/17 11:33:53;;;;;;;7.78;4.85;;;;;;;7.83;55.52;100687.00;5566503;31;33759;-58
2022/01/17 11:36:55;;;;;;;8.63;4.97;;;;;;;7.86;55.31;100673.12;5569159;31;33775;-57
2022/01/17 11:39:58;;;;;;;13.68;4.80;;;;;;;7.79;54.40;100693.09;5560722;32;33673;-57
2022/01/17 11:43:15;;;;;;;8.25;4.30;;;;;;;7.88;54.30;100696.88;5559254;31;34220;-58
2022/01/17 11:46:17;;;;;;;6.43;4.12;;;;;;;7.93;54.37;100705.75;5569015;32;33785;-59
2022/01/17 11:49:28;;;;;;;6.43;4.50;;;;;;;7.86;53.42;100696.34;5566269;31;33689;-58
2022/01/17 11:52:31;;;;;;;6.82;3.92;;;;;;;7.90;53.20;100700.91;5559292;31;33787;-58
2022/01/17 11:55:42;;;;;;;7.28;4.05;;;;;;;7.92;52.83;100714.03;5563545;31;34351;-58
2022/01/17 11:58:46;;;;;;;7.43;3.83;;;;;;;7.88;53.41;100710.22;5557732;32;34408;-58
2022/01/17 12:02:13;;;;;;;12.07;4.57;;;;;;;7.84;55.67;100707.28;5549108;31;33748;-58
2022/01/17 12:05:16;;;;;;;13.27;4.28;;;;;;;7.88;53.35;100692.38;5549060;32;34334;-57
2022/01/17 12:08:22;;;;;;;8.25;4.37;;;;;;;7.83;52.92;100656.84;5549753;31;33808;-58
2022/01/17 12:11:29;;;;;;;7.28;3.83;;;;;;;7.79;53.50;100651.19;5566038;31;33962;-58
2022/01/17 12:14:34;;;;;;;11.15;4.03;;;;;;;7.73;53.38;100662.88;5558377;31;34295;-57
2022/01/17 12:17:37;;;;;;;7.25;3.92;;;;;;;7.81;53.61;100657.06;5573604;31;33799;-58
2022/01/17 12:20:47;;;;;;;6.32;3.60;;;;;;;7.84;54.23;100655.75;5568406;32;34034;-59
2022/01/17 12:23:51;;;;;;;8.15;4.55;;;;;;;7.85;54.50;100647.50;5567836;31;33340;-58
2022/01/17 12:26:53;;;;;;;8.35;4.60;;;;;;;7.86;54.79;100638.44;5567263;32;33838;-57
2022/01/17 12:30:10;;;;;;;7.03;4.22;;;;;;;7.94;53.92;100613.91;5559987;31;35068;-59
2022/01/17 12:33:28;;;;;;;9.68;5.05;;;;;;;7.95;55.16;100625.44;5563418;31;33329;-58
2022/01/17 12:36:31;;;;;;;8.38;5.00;;;;;;;7.92;54.22;100609.94;5549022;32;33648;-58
2022/01/17 12:39:34;;;;;;;8.70;5.55;;;;;;;7.91;54.73;100608.28;5550599;32;33608;-58
2022/01/17 12:42:54;;;;;;;8.65;5.12;;;;;;;7.86;54.30;100590.41;5552475;32;33928;-57
2022/01/17 12:46:10;;;;;;;9.45;5.82;;;;;;;7.85;54.90;100625.34;5567759;31;33799;-58
2022/01/17 12:49:13;;;;;;;9.35;5.55;;;;;;;7.84;55.24;100618.41;5555275;32;33789;-59
2022/01/17 12:52:16;;;;;;;12.37;5.47;;;;;;;7.84;54.69;100635.22;5555552;32;33574;-59
2022/01/17 12:55:19;;;;;;;7.15;4.70;;;;;;;7.95;54.06;100601.41;5558678;32;33732;-59
2022/01/17 12:58:26;;;;;;;9.20;5.43;;;;;;;7.96;54.37;100611.81;5551794;31;33879;-58
2022/01/17 13:01:30;;;;;;;10.23;4.68;;;;;;;7.91;53.71;100603.78;5583296;31;34446;-58
2022/01/17 13:04:33;;;;;;;8.88;4.68;;;;;;;7.94;53.69;100605.12;5567770;32;33776;-58
2022/01/17 13:07:40;;;;;;;6.78;4.60;;;;;;;7.83;53.49;100588.22;5566813;32;34184;-58
2022/01/17 13:10:44;;;;;;;9.65;5.43;;;;;;;7.78;53.86;100598.84;5567097;32;33197;-58
2022/01/17 13:13:52;;;;;;;12.43;4.97;;;;;;;7.82;53.73;100593.84;5567837;32;34274;-58
2022/01/17 13:16:55;;;;;;;9.88;5.28;;;;;;;7.68;54.33;100596.13;5566650;32;33914;-57
2022/01/17 13:19:58;;;;;;;10.32;5.20;;;;;;;7.69;55.18;100585.22;5569264;32;33540;-58
2022/01/17 13:23:06;;;;;;;8.48;5.47;;;;;;;7.67;53.96;100597.19;5570465;32;33596;-58
2022/01/17 13:26:10;;;;;;;7.57;4.95;;;;;;;7.82;55.17;100597.31;5570446;32;34418;-59
2022/01/17 13:29:13;;;;;;;7.68;5.05;;;;;;;7.74;54.05;100573.75;5570417;32;33722;-59
2022/01/17 13:32:15;;;;;;;8.10;5.10;;;;;;;7.87;54.04;100575.19;5570130;32;33736;-58
2022/01/17 13:35:22;;;;;;;7.90;5.12;;;;;;;7.90;53.79;100558.66;5570184;32;33592;-59
2022/01/17 13:38:33;;;;;;;7.15;4.35;;;;;;;7.95;54.52;100561.38;5570041;32;33714;-58
2022/01/17 13:41:38;;;;;;;11.35;5.00;;;;;;;7.91;53.41;100566.41;5570116;32;33647;-58
2022/01/17 13:44:40;;;;;;;9.95;4.82;;;;;;;7.72;54.27;100584.69;5570375;32;33732;-59
2022/01/17 13:47:54;;;;;;;10.10;5.20;;;;;;;7.65;54.61;100592.13;5570284;32;34419;-58
2022/01/17 13:51:02;;;;;;;9.00;4.78;;;;;;;7.71;56.27;100574.25;5570462;32;33745;-58
2022/01/17 13:54:04;;;;;;;8.77;5.40;;;;;;;7.74;54.94;100598.56;5570193;32;33578;-58
2022/01/17 13:57:15;;;;;;;9.93;4.82;;;;;;;7.83;54.69;100568.75;5570261;32;34335;-58
2022/01/17 14:00:44;;;;;;;7.78;4.70;;;;;;;7.83;55.95;100569.56;5570195;32;34088;-58
2022/01/17 14:03:47;;;;;;;9.73;4.47;;;;;;;7.88;54.67;100561.59;5570063;32;34245;-58
2022/01/17 14:06:49;;;;;;;7.65;4.75;;;;;;;7.75;54.95;100543.34;5570408;32;33649;-58
2022/01/17 14:09:52;;;;;;;6.40;4.35;;;;;;;7.71;55.30;100520.88;5570188;32;33740;-58
2022/01/17 14:12:54;;;;;;;7.90;4.60;;;;;;;7.67;55.68;100525.94;5570172;32;34251;-59
2022/01/17 14:16:17;;;;;;;11.93;4.87;;;;;;;7.71;57.58;100511.03;5569905;32;34370;-58
2022/01/17 14:19:22;;;;;;;7.70;4.12;;;;;;;7.73;55.84;100524.91;5569850;32;33378;-58
2022/01/17 14:22:26;;;;;;;7.15;4.40;;;;;;;7.79;56.74;100523.09;5569503;32;33749;-58
2022/01/17 14:25:29;;;;;;;10.43;4.65;;;;;;;7.75;56.19;100535.34;5568832;32;34589;-59
2022/01/17 14:28:33;;;;;;;9.38;4.62;;;;;;;7.83;56.01;100507.38;5569253;32;34525;-58
2022/01/17 14:31:37;;;;;;;8.68;4.30;;;;;;;7.80;57.43;100511.34;5569103;32;34405;-58
2022/01/17 14:34:41;;;;;;;7.18;4.50;;;;;;;7.86;56.32;100528.19;5569543;32;33630;-58
2022/01/17 14:37:43;;;;;;;12.37;4.53;;;;;;;7.74;56.03;100512.38;5569595;32;33724;-58
2022/01/17 14:40:50;;;;;;;7.78;4.22;;;;;;;7.69;57.26;100528.37;5569388;32;33641;-58
2022/01/17 14:43:54;;;;;;;7.18;4.90;;;;;;;7.69;57.76;100504.34;5569199;32;33421;-58
2022/01/17 14:47:16;;;;;;;9.68;4.87;;;;;;;7.64;57.61;100523.78;5568809;32;33750;-58
2022/01/17 14:50:19;;;;;;;11.02;4.97;;;;;;;7.63;57.02;100534.72;5569006;32;33820;-59
2022/01/17 14:53:22;;;;;;;8.40;4.35;;;;;;;7.53;57.48;100520.25;5569462;32;33665;-58
2022/01/17 14:59:51;;;;;;;7.12;4.25;;;;;;;7.65;57.33;100516.59;5569304;32;33653;-58
2022/01/17 15:05:56;;;;;;;7.40;4.35;;;;;;;7.47;58.48;100505.25;5569116;32;33698;-58
2022/01/17 15:08:59;;;;;;;10.27;4.15;;;;;;;7.54;57.89;100527.19;5569132;32;33767;-58
2022/01/17 15:12:01;;;;;;;7.57;4.10;;;;;;;7.60;57.67;100511.22;5569148;32;33681;-58
2022/01/17 15:15:04;;;;;;;9.02;4.45;;;;;;;7.61;58.38;100564.31;5569372;32;33643;-59
2022/01/17 15:18:11;;;;;;;10.30;4.07;;;;;;;7.75;59.46;100554.84;5568863;32;33671;-58
2022/01/17 15:21:14;;;;;;;6.93;4.25;;;;;;;7.91;58.04;100560.25;5568938;32;34260;-59
2022/01/17 15:24:17;;;;;;;7.10;4.37;;;;;;;7.81;56.87;100555.66;5569181;32;33973;-58
2022/01/17 15:27:19;;;;;;;6.90;4.37;;;;;;;7.63;58.40;100550.75;5568790;32;34288;-58
2022/01/17 15:30:23;;;;;;;6.87;3.80;;;;;;;7.72;58.18;100547.34;5569124;32;33786;-57
2022/01/17 15:33:26;;;;;;;7.40;4.10;;;;;;;7.82;57.92;100570.62;5569131;32;33765;-58
2022/01/17 15:36:28;;;;;;;6.40;4.10;;;;;;;7.84;57.46;100563.13;5568543;32;34278;-58
2022/01/17 15:39:31;;;;;;;6.87;4.45;;;;;;;7.86;57.34;100571.72;5569102;32;33751;-59
2022/01/17 15:42:34;;;;;;;7.07;4.05;;;;;;;7.67;57.36;100575.84;5566043;32;33683;-59
2022/01/17 15:45:36;;;;;;;8.02;5.03;;;;;;;7.52;58.58;100595.22;5563171;32;34214;-59
2022/01/17 15:48:39;;;;;;;9.38;4.30;;;;;;;7.35;58.50;100578.50;5557325;32;34162;-58
2022/01/17 15:51:41;;;;;;;6.35;3.95;;;;;;;7.27;58.83;100590.44;5550255;31;33726;-58
2022/01/17 15:54:44;;;;;;;13.93;4.65;;;;;;;7.35;58.86;100590.00;5550261;32;34509;-59
2022/01/17 15:57:47;;;;;;;10.63;4.30;;;;;;;7.45;59.01;100603.44;5550476;32;34114;-58
2022/01/17 16:00:49;;;;;;;7.40;4.28;;;;;;;7.44;59.47;100593.78;5549715;32;34283;-59
2022/01/17 16:03:52;;;;;;;9.43;4.30;;;;;;;7.50;59.00;100590.13;5549617;32;34255;-58
2022/01/17 16:06:54;;;;;;;9.70;4.20;;;;;;;7.49;58.44;100617.06;5549521;32;34369;-58
2022/01/17 16:09:56;;;;;;;6.97;4.32;;;;;;;7.43;58.98;100610.06;5549553;32;33666;-58
2022/01/17 16:12:58;;;;;;;10.25;4.10;;;;;;;7.40;58.66;100619.38;5549481;32;34346;-58
2022/01/17 16:16:02;;;;;;;7.50;4.70;;;;;;;7.40;59.43;100622.03;5549392;32;33786;-58
2022/01/17 16:19:10;;;;;;;6.22;3.97;;;;;;;7.38;59.25;100602.81;5549620;32;33754;-58
2022/01/17 16:22:12;;;;;;;11.10;4.35;;;;;;;7.35;58.25;100616.69;5549426;32;34431;-60
2022/01/17 16:25:15;;;;;;;6.82;4.45;;;;;;;7.37;59.41;100616.41;5549417;32;33789;-61
2022/01/17 16:28:21;;;;;;;7.65;4.15;;;;;;;7.43;59.10;100616.19;5549515;32;33680;-61
2022/01/17 16:31:24;;;;;;;11.20;4.00;;;;;;;7.39;58.10;100612.44;5549563;32;33830;-61
2022/01/17 16:34:27;;;;;;;7.25;4.00;;;;;;;7.39;57.91;100639.12;5549373;32;33812;-61
2022/01/17 16:37:29;;;;;;;9.00;4.82;;;;;;;7.49;58.03;100643.72;5549395;32;34278;-61
2022/01/17 16:40:31;;;;;;;9.00;4.40;;;;;;;7.51;66.03;100617.59;5549189;32;34392;-60
2022/01/17 16:43:34;;;;;;;6.72;3.87;;;;;;;7.59;58.11;100627.00;5549195;32;33640;-61
2022/01/17 16:46:39;;;;;;;9.65;4.50;;;;;;;7.48;58.62;100621.59;5549135;32;33822;-61
2022/01/17 16:49:41;;;;;;;7.28;4.37;;;;;;;7.34;58.74;100655.03;5549160;32;33354;-61
